Time;durP1;ratioP1;P1;durP2;ratioP2;P2;SDS_P1;SDS_P2;PMS_P1;PMS_P2;Temp;Humidity;BMP_temperature;BMP_pressure;BME280_temperature;BME280_humidity;BME280_pressure;Samples;Min_cycle;Max_cycle;Signal;HPM_P1;HPM_P2
2023/12/06 00:00:29;;;;;;;54.05;28.65;;;1.70;99.90;;;;;;5005446;28;20060;-77
2023/12/06 00:02:54;;;;;;;51.50;28.15;;;1.70;99.90;;;;;;5028130;28;20101;-77
2023/12/06 00:05:20;;;;;;;51.95;28.63;;;1.70;99.90;;;;;;5010213;28;20446;-76
2023/12/06 00:07:46;;;;;;;52.33;28.95;;;1.70;99.90;;;;;;5016651;28;20502;-77
2023/12/06 00:10:12;;;;;;;53.70;28.67;;;1.70;99.90;;;;;;5018313;28;20030;-77
2023/12/06 00:12:37;;;;;;;51.22;27.48;;;1.80;99.90;;;;;;5029806;28;20037;-77
2023/12/06 00:15:03;;;;;;;51.15;27.95;;;1.70;99.90;;;;;;5014768;28;20065;-76
2023/12/06 00:17:28;;;;;;;54.42;28.55;;;1.80;99.90;;;;;;5029792;28;20037;-76
2023/12/06 00:19:54;;;;;;;51.83;28.10;;;1.70;99.90;;;;;;5025398;28;20069;-76
2023/12/06 00:22:20;;;;;;;51.35;27.88;;;1.80;99.90;;;;;;5003429;28;20487;-76
2023/12/06 00:24:46;;;;;;;56.95;29.35;;;1.70;99.90;;;;;;5021009;28;20461;-77
2023/12/06 00:27:12;;;;;;;50.95;28.33;;;1.80;99.90;;;;;;5003240;28;20134;-76
2023/12/06 00:29:38;;;;;;;51.85;29.05;;;1.70;99.90;;;;;;5009474;28;20122;-77
2023/12/06 00:32:04;;;;;;;54.50;29.85;;;1.70;99.90;;;;;;5014336;28;20046;-77
2023/12/06 00:34:29;;;;;;;54.20;29.50;;;1.80;99.90;;;;;;5008522;28;20300;-77
2023/12/06 00:36:55;;;;;;;52.25;28.48;;;1.80;99.90;;;;;;5007958;28;20046;-76
2023/12/06 00:39:20;;;;;;;53.25;28.33;;;1.80;99.90;;;;;;5007928;28;20141;-77
2023/12/06 00:41:46;;;;;;;51.67;27.90;;;1.80;99.90;;;;;;5019583;28;20064;-77
2023/12/06 00:44:11;;;;;;;52.45;27.88;;;1.80;99.90;;;;;;5004961;28;20037;-77
2023/12/06 00:46:37;;;;;;;53.28;28.42;;;1.80;99.90;;;;;;5016309;28;20038;-77
2023/12/06 00:49:03;;;;;;;54.75;28.23;;;1.80;99.90;;;;;;5018462;28;20049;-77
2023/12/06 00:51:29;;;;;;;53.10;28.73;;;2.20;99.90;;;;;;5026603;28;20037;-76
2023/12/06 00:53:54;;;;;;;53.58;28.67;;;1.80;99.90;;;;;;5024508;28;20056;-77
2023/12/06 00:56:20;;;;;;;53.80;28.95;;;1.70;99.90;;;;;;5011030;28;20033;-77
2023/12/06 00:58:46;;;;;;;56.42;29.48;;;1.80;99.90;;;;;;5015690;28;20116;-77
2023/12/06 01:01:12;;;;;;;53.90;28.90;;;1.70;99.90;;;;;;5007718;28;20509;-76
2023/12/06 01:03:40;;;;;;;53.22;28.42;;;1.80;99.90;;;;;;5031198;28;20081;-77
2023/12/06 01:06:06;;;;;;;54.78;28.55;;;1.80;99.90;;;;;;5003126;28;20045;-77
2023/12/06 01:08:31;;;;;;;55.20;28.98;;;1.80;99.90;;;;;;5005548;28;20609;-77
2023/12/06 01:10:57;;;;;;;55.63;29.63;;;1.80;99.90;;;;;;5004712;28;20045;-77
2023/12/06 01:13:22;;;;;;;54.03;29.60;;;1.80;99.90;;;;;;4992979;28;20045;-77
2023/12/06 01:15:48;;;;;;;53.60;29.00;;;1.80;99.90;;;;;;5015178;28;20112;-76
2023/12/06 01:18:13;;;;;;;53.40;28.38;;;1.80;99.90;;;;;;5013281;28;20137;-77
2023/12/06 01:20:39;;;;;;;55.42;29.92;;;1.80;99.90;;;;;;5020988;28;20036;-77
2023/12/06 01:23:06;;;;;;;53.85;28.75;;;1.80;99.90;;;;;;5004942;28;20045;-77
2023/12/06 01:25:33;;;;;;;52.60;28.35;;;1.80;99.90;;;;;;5025804;28;20051;-76
2023/12/06 01:27:58;;;;;;;54.40;28.88;;;1.80;99.90;;;;;;5008931;28;20405;-77
2023/12/06 01:30:24;;;;;;;53.67;28.55;;;1.80;99.90;;;;;;4985595;28;20045;-77
2023/12/06 01:32:50;;;;;;;54.53;28.58;;;1.80;99.90;;;;;;5013163;28;20615;-77
2023/12/06 01:35:15;;;;;;;59.35;30.10;;;1.80;99.90;;;;;;5003363;28;20096;-77
2023/12/06 01:37:41;;;;;;;54.28;29.35;;;1.80;99.90;;;;;;5014627;28;20049;-77
2023/12/06 01:40:07;;;;;;;53.58;28.92;;;1.80;99.90;;;;;;5006882;28;20569;-76
2023/12/06 01:42:32;;;;;;;51.83;27.98;;;1.80;99.90;;;;;;5015414;28;20048;-77
2023/12/06 01:44:58;;;;;;;54.42;29.40;;;1.80;99.90;;;;;;5003262;28;20045;-77
2023/12/06 01:47:26;;;;;;;55.83;29.58;;;1.80;99.90;;;;;;5026142;28;20030;-77
2023/12/06 01:49:54;;;;;;;54.05;29.02;;;1.80;99.90;;;;;;5025940;28;20051;-77
2023/12/06 01:52:20;;;;;;;54.60;29.25;;;1.70;99.90;;;;;;5009098;28;20389;-77
2023/12/06 01:54:47;;;;;;;56.38;29.10;;;1.70;99.90;;;;;;5031716;28;20046;-77
2023/12/06 01:57:12;;;;;;;55.08;28.88;;;1.70;99.90;;;;;;5002919;28;20045;-76
2023/12/06 01:59:39;;;;;;;57.58;29.60;;;1.70;99.90;;;;;;5006940;28;20411;-77
2023/12/06 02:02:05;;;;;;;55.90;29.52;;;1.70;99.90;;;;;;5006298;28;20449;-76
2023/12/06 02:04:33;;;;;;;58.25;29.77;;;1.70;99.90;;;;;;5005285;28;20159;-75
2023/12/06 02:06:59;;;;;;;57.90;29.83;;;1.70;99.90;;;;;;5000715;28;20038;-76
2023/12/06 02:09:26;;;;;;;54.45;28.92;;;1.70;99.90;;;;;;5006356;28;20042;-76
2023/12/06 02:11:51;;;;;;;56.60;29.65;;;1.70;99.90;;;;;;5016215;28;20053;-75
2023/12/06 02:14:17;;;;;;;56.33;28.02;;;1.70;99.90;;;;;;5007852;28;20050;-76
2023/12/06 02:16:43;;;;;;;59.55;29.27;;;1.70;99.90;;;;;;5006914;28;20057;-76
2023/12/06 02:19:17;;;;;;;55.50;28.70;;;1.70;99.90;;;;;;5000808;28;20045;-76
2023/12/06 02:21:44;;;;;;;59.67;30.85;;;1.70;99.90;;;;;;5011045;28;20042;-76
2023/12/06 02:24:11;;;;;;;59.75;30.02;;;1.70;99.90;;;;;;4993249;28;20561;-75
2023/12/06 02:26:36;;;;;;;57.40;30.45;;;1.70;99.90;;;;;;5006610;28;20397;-76
2023/12/06 02:29:02;;;;;;;56.03;28.08;;;1.70;99.90;;;;;;5001469;28;20038;-75
2023/12/06 02:31:28;;;;;;;54.13;28.83;;;1.70;99.90;;;;;;5000268;28;20046;-75
2023/12/06 02:33:54;;;;;;;57.58;29.73;;;1.70;99.90;;;;;;5002696;28;20542;-74
2023/12/06 02:36:22;;;;;;;57.10;29.75;;;1.60;99.90;;;;;;4999793;28;20053;-74
2023/12/06 02:38:48;;;;;;;56.58;29.48;;;1.70;99.90;;;;;;5022453;28;20033;-75
2023/12/06 02:41:16;;;;;;;53.80;28.77;;;1.60;99.90;;;;;;5003099;28;20067;-75
2023/12/06 02:43:43;;;;;;;57.40;29.08;;;1.60;99.90;;;;;;5024877;28;20037;-75
2023/12/06 02:46:09;;;;;;;54.92;28.80;;;1.60;99.90;;;;;;5002253;28;20406;-75
2023/12/06 02:48:35;;;;;;;55.08;28.58;;;1.70;99.90;;;;;;5016234;28;20116;-75
2023/12/06 02:51:00;;;;;;;56.40;29.35;;;2.20;99.90;;;;;;5007658;28;20064;-74
2023/12/06 02:53:26;;;;;;;59.92;29.98;;;1.60;99.90;;;;;;5001434;28;20065;-76
2023/12/06 02:55:51;;;;;;;55.33;29.75;;;1.70;99.90;;;;;;5000510;28;20045;-75
2023/12/06 02:58:17;;;;;;;55.70;29.52;;;1.60;99.90;;;;;;5011202;28;20045;-75
2023/12/06 03:00:42;;;;;;;51.83;27.98;;;1.70;99.90;;;;;;5023166;28;20029;-74
2023/12/06 03:03:08;;;;;;;53.83;28.13;;;1.70;99.90;;;;;;5005047;28;20042;-75
2023/12/06 03:05:33;;;;;;;54.88;28.00;;;1.70;99.90;;;;;;5005900;28;20038;-75
2023/12/06 03:07:59;;;;;;;53.88;28.58;;;1.70;99.90;;;;;;5009064;28;20045;-75
2023/12/06 03:10:24;;;;;;;51.15;27.25;;;1.70;99.90;;;;;;5007768;28;20045;-76
2023/12/06 03:12:50;;;;;;;50.90;27.17;;;1.70;99.90;;;;;;4981226;28;20072;-76
2023/12/06 03:15:16;;;;;;;48.78;27.52;;;1.70;99.90;;;;;;5019468;28;20045;-75
2023/12/06 03:17:41;;;;;;;51.70;27.70;;;1.70;99.90;;;;;;5011285;28;20083;-75
2023/12/06 03:20:08;;;;;;;47.47;25.75;;;1.70;99.90;;;;;;5013417;28;20072;-75
2023/12/06 03:22:34;;;;;;;49.28;26.67;;;1.70;99.90;;;;;;5011270;28;20052;-75
2023/12/06 03:24:59;;;;;;;49.60;26.23;;;1.70;99.90;;;;;;5015978;28;20042;-74
2023/12/06 03:27:25;;;;;;;51.28;26.38;;;1.60;99.90;;;;;;5008747;28;20088;-75
2023/12/06 03:29:50;;;;;;;49.45;26.17;;;1.70;99.90;;;;;;5020944;28;20048;-74
2023/12/06 03:32:16;;;;;;;47.72;26.52;;;1.70;99.90;;;;;;5033484;28;20516;-75
2023/12/06 03:34:42;;;;;;;47.35;26.02;;;1.60;99.90;;;;;;5033910;28;20124;-75
2023/12/06 03:37:08;;;;;;;47.22;24.90;;;1.60;99.90;;;;;;5027118;28;20116;-75
2023/12/06 03:39:33;;;;;;;49.97;26.38;;;1.60;99.90;;;;;;5025999;28;20088;-75
2023/12/06 03:41:59;;;;;;;47.22;25.17;;;1.60;99.90;;;;;;5013625;28;20045;-75
2023/12/06 03:44:25;;;;;;;47.65;25.73;;;1.70;99.90;;;;;;5012863;28;20032;-76
2023/12/06 03:46:50;;;;;;;46.45;24.90;;;1.60;99.90;;;;;;5029123;22;20045;-62
2023/12/06 03:49:16;;;;;;;43.55;25.40;;;1.60;99.90;;;;;;5028866;28;20448;-65
2023/12/06 03:51:42;;;;;;;44.88;24.75;;;1.60;99.90;;;;;;5045887;28;20075;-61
2023/12/06 03:54:08;;;;;;;47.13;25.52;;;1.60;99.90;;;;;;5028865;28;20045;-64
2023/12/06 03:56:33;;;;;;;47.92;25.42;;;2.10;99.90;;;;;;5029119;28;20034;-61
2023/12/06 03:58:59;;;;;;;45.70;25.58;;;1.70;99.90;;;;;;5029166;28;20042;-61
2023/12/06 04:01:25;;;;;;;45.22;25.17;;;1.70;99.90;;;;;;5033065;28;20041;-62
2023/12/06 04:03:50;;;;;;;46.10;25.33;;;1.60;99.90;;;;;;5041427;28;20045;-61
2023/12/06 04:06:16;;;;;;;43.83;24.60;;;1.70;99.90;;;;;;5039599;28;20171;-61
2023/12/06 04:08:41;;;;;;;48.95;25.38;;;1.70;99.90;;;;;;5038614;28;20029;-62
2023/12/06 04:11:07;;;;;;;44.63;25.30;;;1.70;99.90;;;;;;5035116;28;20607;-61
2023/12/06 04:13:32;;;;;;;42.65;23.95;;;1.70;99.90;;;;;;5038735;28;20045;-64
2023/12/06 04:15:58;;;;;;;44.50;25.10;;;1.70;99.90;;;;;;5039476;28;20064;-61
2023/12/06 04:18:24;;;;;;;43.38;24.92;;;1.70;99.90;;;;;;5030091;28;20503;-61
2023/12/06 04:20:49;;;;;;;43.28;24.05;;;1.70;99.90;;;;;;5045269;28;20127;-62
2023/12/06 04:23:15;;;;;;;47.00;23.98;;;1.70;99.90;;;;;;5049864;28;20037;-64
2023/12/06 04:25:40;;;;;;;39.63;23.67;;;1.70;99.90;;;;;;5013448;28;20523;-61
2023/12/06 04:28:07;;;;;;;43.88;23.50;;;1.70;99.90;;;;;;5031966;28;20041;-63
2023/12/06 04:30:32;;;;;;;40.28;23.88;;;1.70;99.90;;;;;;5031576;28;20112;-61
2023/12/06 04:32:58;;;;;;;40.88;23.52;;;1.70;99.90;;;;;;5032117;28;20155;-62
2023/12/06 04:35:23;;;;;;;38.83;22.48;;;1.80;99.90;;;;;;5041724;28;20052;-65
2023/12/06 04:37:49;;;;;;;41.83;23.80;;;1.80;99.90;;;;;;5033341;28;20052;-61
2023/12/06 04:40:15;;;;;;;39.78;21.90;;;1.80;99.90;;;;;;5041159;28;20109;-61
2023/12/06 04:42:40;;;;;;;38.28;21.80;;;1.80;99.90;;;;;;5042904;28;20029;-61
2023/12/06 04:45:06;;;;;;;42.22;22.55;;;1.80;99.90;;;;;;5027346;28;20041;-61
2023/12/06 04:47:32;;;;;;;36.78;22.10;;;1.80;99.90;;;;;;5046691;28;20037;-65
2023/12/06 04:49:58;;;;;;;36.60;21.50;;;1.80;99.90;;;;;;5029101;28;20041;-61
2023/12/06 04:52:24;;;;;;;38.20;21.40;;;1.90;99.90;;;;;;5029284;28;20110;-60
2023/12/06 04:54:51;;;;;;;41.42;22.10;;;1.90;99.90;;;;;;5045767;28;20779;-61
2023/12/06 04:57:17;;;;;;;36.17;21.73;;;1.90;99.90;;;;;;5044249;28;20034;-62
2023/12/06 04:59:42;;;;;;;37.53;21.77;;;1.90;99.90;;;;;;5038983;28;20086;-62
2023/12/06 05:02:08;;;;;;;36.70;21.13;;;1.90;99.90;;;;;;5027555;28;20046;-65
2023/12/06 05:04:34;;;;;;;35.42;21.48;;;1.90;99.90;;;;;;5041504;28;20048;-62
2023/12/06 05:06:59;;;;;;;37.05;21.30;;;1.90;99.90;;;;;;5036966;28;20056;-60
2023/12/06 05:09:25;;;;;;;36.20;20.98;;;1.90;99.90;;;;;;5043709;28;20029;-61
2023/12/06 05:11:51;;;;;;;37.38;21.13;;;1.90;99.90;;;;;;5035513;28;20049;-64
2023/12/06 05:14:17;;;;;;;38.38;22.10;;;1.90;99.90;;;;;;5034994;28;20048;-65
2023/12/06 05:16:42;;;;;;;34.58;21.13;;;2.00;99.90;;;;;;5038194;28;20047;-64
2023/12/06 05:19:08;;;;;;;38.83;22.67;;;1.90;99.90;;;;;;5044519;28;20408;-61
2023/12/06 05:21:34;;;;;;;35.53;20.98;;;1.90;99.90;;;;;;5038635;28;20064;-61
2023/12/06 05:23:59;;;;;;;36.38;20.85;;;2.00;99.90;;;;;;5043715;28;20041;-61
2023/12/06 05:26:26;;;;;;;35.45;20.58;;;2.00;99.90;;;;;;5043798;28;20040;-64
2023/12/06 05:28:52;;;;;;;36.75;20.67;;;2.00;99.90;;;;;;5038316;28;20112;-60
2023/12/06 05:31:18;;;;;;;34.10;20.85;;;2.00;99.90;;;;;;5027906;28;20041;-61
2023/12/06 05:33:43;;;;;;;32.55;19.67;;;2.00;99.90;;;;;;5026762;28;20495;-62
2023/12/06 05:36:09;;;;;;;35.60;20.60;;;2.00;99.90;;;;;;5025533;28;20048;-65
2023/12/06 05:38:35;;;;;;;35.42;20.45;;;2.00;99.90;;;;;;5032025;28;20135;-61
2023/12/06 05:41:00;;;;;;;35.13;20.92;;;2.10;99.90;;;;;;5018360;28;20033;-61
2023/12/06 05:43:26;;;;;;;32.30;20.63;;;2.10;99.90;;;;;;5014268;28;20037;-61
2023/12/06 05:45:52;;;;;;;32.90;20.35;;;2.10;99.90;;;;;;5023667;28;20033;-62
2023/12/06 05:48:17;;;;;;;33.25;19.60;;;2.10;99.90;;;;;;5030569;28;20036;-63
2023/12/06 05:50:43;;;;;;;34.35;20.63;;;2.10;99.90;;;;;;5027051;28;20492;-60
2023/12/06 05:53:09;;;;;;;36.08;20.95;;;2.10;99.90;;;;;;5019454;28;20114;-61
2023/12/06 05:55:34;;;;;;;35.58;21.20;;;2.10;99.90;;;;;;5042041;28;20044;-61
2023/12/06 05:58:00;;;;;;;36.50;21.17;;;2.10;99.90;;;;;;5047318;28;20037;-62
2023/12/06 06:00:25;;;;;;;34.33;20.92;;;2.10;99.90;;;;;;5047247;28;20401;-63
2023/12/06 06:02:55;;;;;;;34.45;20.15;;;2.20;99.90;;;;;;5030635;28;20049;-60
2023/12/06 06:05:22;;;;;;;35.15;21.50;;;2.30;99.90;;;;;;5035344;28;20037;-61
2023/12/06 06:07:47;;;;;;;40.75;22.83;;;2.20;99.90;;;;;;5039914;28;20043;-60
2023/12/06 06:10:13;;;;;;;40.63;22.52;;;2.20;99.90;;;;;;5046081;28;20419;-60
2023/12/06 06:12:39;;;;;;;35.30;21.48;;;2.20;99.90;;;;;;5036041;28;20041;-61
2023/12/06 06:15:05;;;;;;;42.35;22.52;;;2.20;99.90;;;;;;5027764;28;20049;-61
2023/12/06 06:17:31;;;;;;;37.00;22.33;;;2.20;99.90;;;;;;5028546;28;20123;-62
2023/12/06 06:19:56;;;;;;;39.25;22.77;;;2.20;99.90;;;;;;5040479;28;20029;-66
2023/12/06 06:22:22;;;;;;;36.10;21.30;;;2.20;99.90;;;;;;5044791;28;20040;-61
2023/12/06 06:24:49;;;;;;;38.92;21.75;;;2.20;99.90;;;;;;5051215;28;20032;-63
2023/12/06 06:27:14;;;;;;;33.53;20.65;;;2.20;99.90;;;;;;5045049;28;20033;-61
2023/12/06 06:29:40;;;;;;;38.00;21.52;;;2.20;99.90;;;;;;5037539;28;20037;-61
2023/12/06 06:32:06;;;;;;;41.28;21.48;;;2.30;99.90;;;;;;5046161;28;20055;-61
2023/12/06 06:34:32;;;;;;;39.90;22.52;;;2.30;99.90;;;;;;5040851;28;20037;-61
2023/12/06 06:36:58;;;;;;;37.97;20.88;;;2.30;99.90;;;;;;5044093;28;20044;-61
2023/12/06 06:39:23;;;;;;;36.60;21.40;;;2.30;99.90;;;;;;5035251;28;20060;-62
2023/12/06 06:41:49;;;;;;;37.83;21.98;;;2.30;99.90;;;;;;5044765;28;20055;-65
2023/12/06 06:44:14;;;;;;;36.40;21.80;;;2.30;99.90;;;;;;5043129;28;20037;-61
2023/12/06 06:46:40;;;;;;;40.80;21.50;;;2.30;99.90;;;;;;5045403;28;20112;-61
2023/12/06 06:49:05;;;;;;;38.97;21.42;;;2.30;99.90;;;;;;5037196;28;20029;-62
2023/12/06 06:51:36;;;;;;;36.08;20.85;;;2.30;99.90;;;;;;5034837;28;20049;-65
2023/12/06 06:54:03;;;;;;;38.42;20.95;;;2.30;99.90;;;;;;5031277;28;20147;-63
2023/12/06 06:56:28;;;;;;;35.63;21.65;;;2.40;99.90;;;;;;5035276;28;20041;-61
2023/12/06 06:58:54;;;;;;;35.03;20.80;;;2.40;99.90;;;;;;5036301;28;20045;-62
2023/12/06 07:01:20;;;;;;;34.45;21.13;;;2.40;99.90;;;;;;5046190;28;20136;-62
2023/12/06 07:03:45;;;;;;;36.42;20.35;;;2.40;99.90;;;;;;5044483;28;20112;-65
2023/12/06 07:06:11;;;;;;;36.10;20.60;;;2.40;99.90;;;;;;5042660;28;20108;-62
2023/12/06 07:08:37;;;;;;;34.47;20.10;;;1.50;99.90;;;;;;5041246;28;20068;-62
2023/12/06 07:11:04;;;;;;;35.33;20.60;;;2.40;99.90;;;;;;5047646;28;20045;-62
2023/12/06 07:13:30;;;;;;;34.72;19.65;;;2.40;99.90;;;;;;5045128;28;20056;-62
2023/12/06 07:15:56;;;;;;;32.65;20.02;;;2.40;99.90;;;;;;5037007;28;20492;-62
2023/12/06 07:18:21;;;;;;;31.45;19.30;;;2.40;99.90;;;;;;5047178;28;20033;-62
2023/12/06 07:20:48;;;;;;;32.47;19.52;;;2.50;99.90;;;;;;5035397;28;20419;-62
2023/12/06 07:23:14;;;;;;;30.75;19.17;;;2.50;99.90;;;;;;5035970;28;21183;-61
2023/12/06 07:25:39;;;;;;;33.67;19.70;;;2.50;99.90;;;;;;5021807;28;21894;-61
2023/12/06 07:28:05;;;;;;;31.20;19.42;;;2.50;99.90;;;;;;5031449;28;20048;-62
2023/12/06 07:30:31;;;;;;;32.38;18.73;;;2.50;99.90;;;;;;5020522;28;20048;-62
2023/12/06 07:32:57;;;;;;;30.45;19.27;;;2.50;99.90;;;;;;5034686;28;20038;-62
2023/12/06 07:35:22;;;;;;;32.80;18.52;;;2.50;99.90;;;;;;5028108;28;20523;-63
2023/12/06 07:37:48;;;;;;;33.00;18.50;;;2.50;99.90;;;;;;5037923;28;20450;-63
2023/12/06 07:40:14;;;;;;;28.15;18.30;;;2.50;99.90;;;;;;5039243;28;20124;-62
2023/12/06 07:42:39;;;;;;;32.30;19.42;;;2.50;99.90;;;;;;5039002;28;21088;-62
2023/12/06 07:45:09;;;;;;;30.52;18.50;;;2.50;99.90;;;;;;5037365;28;20040;-62
2023/12/06 07:47:35;;;;;;;31.58;19.05;;;2.60;99.90;;;;;;5033065;28;20088;-62
2023/12/06 07:50:00;;;;;;;30.45;18.02;;;2.60;99.90;;;;;;5043440;28;20041;-64
2023/12/06 07:52:26;;;;;;;29.42;18.25;;;2.60;99.90;;;;;;5035099;28;20043;-62
2023/12/06 07:54:52;;;;;;;28.95;18.25;;;2.60;99.90;;;;;;5036117;28;20048;-61
2023/12/06 07:57:17;;;;;;;28.10;17.70;;;2.60;99.90;;;;;;5038815;28;20037;-62
2023/12/06 07:59:47;;;;;;;28.48;18.40;;;2.60;99.90;;;;;;5024773;28;20048;-64
2023/12/06 08:02:13;;;;;;;28.63;18.13;;;2.60;99.90;;;;;;5045669;28;20041;-62
2023/12/06 08:04:38;;;;;;;30.02;17.80;;;2.60;99.90;;;;;;5039304;28;20084;-61
2023/12/06 08:07:04;;;;;;;28.52;18.13;;;2.60;99.90;;;;;;5036826;28;20044;-62
2023/12/06 08:09:29;;;;;;;30.73;19.08;;;2.70;99.90;;;;;;5042184;28;20084;-65
2023/12/06 08:11:56;;;;;;;37.97;20.90;;;2.70;99.90;;;;;;5024812;28;20045;-62
2023/12/06 08:14:22;;;;;;;42.20;27.98;;;2.70;99.90;;;;;;5043335;28;20530;-62
2023/12/06 08:16:47;;;;;;;42.75;29.45;;;2.70;99.90;;;;;;5043415;28;20030;-63
2023/12/06 08:19:13;;;;;;;38.03;26.70;;;2.70;99.90;;;;;;5026732;28;20528;-62
2023/12/06 08:21:38;;;;;;;39.20;28.23;;;2.70;99.90;;;;;;5031116;28;20455;-62
2023/12/06 08:24:06;;;;;;;37.95;27.63;;;2.70;99.90;;;;;;5029700;28;20037;-62
2023/12/06 08:26:33;;;;;;;46.05;32.47;;;2.80;99.90;;;;;;5041345;28;20040;-62
2023/12/06 08:29:00;;;;;;;100.15;70.50;;;2.80;99.90;;;;;;5031654;28;20647;-67
2023/12/06 08:31:28;;;;;;;182.10;108.25;;;2.80;99.90;;;;;;5031744;28;20037;-62
2023/12/06 08:33:54;;;;;;;334.52;150.05;;;2.80;99.90;;;;;;5027263;28;20515;-62
2023/12/06 08:36:19;;;;;;;132.77;69.07;;;2.80;99.90;;;;;;5031437;28;20045;-63
2023/12/06 08:38:45;;;;;;;72.93;40.72;;;2.90;99.90;;;;;;5021965;28;20053;-63
2023/12/06 08:41:10;;;;;;;51.08;35.92;;;2.90;99.90;;;;;;5033840;28;20040;-63
2023/12/06 08:43:37;;;;;;;39.42;26.75;;;2.90;99.90;;;;;;5033227;28;20112;-65
2023/12/06 08:46:03;;;;;;;41.17;29.05;;;2.80;99.90;;;;;;5022849;28;20612;-62
2023/12/06 08:48:29;;;;;;;39.28;26.20;;;2.90;99.90;;;;;;5028404;28;20037;-64
2023/12/06 08:50:55;;;;;;;46.47;31.98;;;2.90;99.90;;;;;;5028972;28;20076;-62
2023/12/06 08:53:21;;;;;;;37.53;23.33;;;2.90;99.90;;;;;;5028117;28;20068;-63
2023/12/06 08:55:46;;;;;;;31.52;20.50;;;2.90;99.90;;;;;;5023400;28;21298;-64
2023/12/06 08:58:12;;;;;;;32.72;19.92;;;2.90;99.90;;;;;;5022340;28;20208;-62
2023/12/06 09:00:38;;;;;;;31.77;19.60;;;2.90;99.90;;;;;;5023184;28;20151;-62
2023/12/06 09:03:03;;;;;;;31.90;19.73;;;2.90;99.90;;;;;;5027400;28;20428;-65
2023/12/06 09:05:30;;;;;;;29.50;17.85;;;2.90;99.90;;;;;;5023003;28;20091;-64
2023/12/06 09:07:57;;;;;;;31.92;19.15;;;2.90;99.90;;;;;;5024506;28;20040;-61
2023/12/06 09:10:22;;;;;;;34.13;18.80;;;3.00;99.90;;;;;;5012349;28;20045;-63
2023/12/06 09:12:48;;;;;;;39.00;25.08;;;3.00;99.90;;;;;;5024412;28;20404;-64
2023/12/06 09:15:16;;;;;;;33.90;21.80;;;3.00;99.90;;;;;;5028652;28;20040;-62
2023/12/06 09:17:41;;;;;;;33.47;20.25;;;3.00;99.90;;;;;;5034167;28;20060;-62
2023/12/06 09:20:09;;;;;;;32.70;19.27;;;3.00;99.90;;;;;;5033499;28;20041;-63
2023/12/06 09:22:36;;;;;;;33.97;19.45;;;3.00;99.90;;;;;;5026252;28;20454;-62
2023/12/06 09:25:04;;;;;;;31.05;20.33;;;3.00;99.90;;;;;;5038376;28;20129;-63
2023/12/06 09:27:31;;;;;;;35.35;23.20;;;3.00;99.90;;;;;;5025765;28;20037;-62
2023/12/06 09:29:57;;;;;;;38.22;23.45;;;3.10;99.90;;;;;;5038948;28;20033;-61
2023/12/06 09:32:23;;;;;;;32.75;20.92;;;3.10;99.90;;;;;;5033584;28;20043;-62
2023/12/06 09:34:49;;;;;;;28.60;18.63;;;3.10;99.90;;;;;;5027086;28;20147;-62
2023/12/06 09:37:15;;;;;;;30.02;19.67;;;3.10;99.90;;;;;;5028651;28;20041;-62
2023/12/06 09:39:41;;;;;;;32.15;18.60;;;3.20;99.90;;;;;;5031624;28;20037;-64
2023/12/06 09:42:06;;;;;;;31.70;19.90;;;3.20;99.90;;;;;;5037902;28;20388;-62
2023/12/06 09:44:35;;;;;;;32.70;20.27;;;3.20;99.90;;;;;;5030265;28;20021;-65
2023/12/06 09:47:01;;;;;;;27.95;18.73;;;3.30;99.90;;;;;;5034445;28;20029;-62
2023/12/06 09:49:27;;;;;;;33.95;21.13;;;3.30;99.90;;;;;;5031453;28;20490;-62
2023/12/06 09:52:17;;;;;;;31.15;18.38;;;3.30;99.90;;;;;;5039631;28;20041;-63
2023/12/06 09:54:43;;;;;;;31.10;18.17;;;3.30;99.90;;;;;;5038167;28;20051;-62
2023/12/06 09:57:11;;;;;;;28.60;18.08;;;3.30;99.90;;;;;;5019721;28;20044;-62
2023/12/06 09:59:37;;;;;;;29.98;18.40;;;3.30;99.90;;;;;;5033626;28;20041;-62
2023/12/06 10:02:02;;;;;;;31.45;20.88;;;3.40;99.90;;;;;;5038867;28;20151;-63
2023/12/06 10:04:28;;;;;;;33.58;22.08;;;3.40;99.90;;;;;;5042159;28;20037;-65
2023/12/06 10:06:54;;;;;;;29.00;19.70;;;3.40;99.90;;;;;;5040733;28;20124;-61
2023/12/06 10:09:20;;;;;;;30.55;19.65;;;3.40;99.90;;;;;;5033051;28;20451;-62
2023/12/06 10:11:47;;;;;;;26.88;17.27;;;3.50;99.90;;;;;;5039128;28;20048;-64
2023/12/06 10:14:20;;;;;;;27.63;17.65;;;3.50;99.90;;;;;;5034862;28;20052;-64
2023/12/06 10:16:47;;;;;;;30.83;19.02;;;3.50;99.90;;;;;;5037035;28;20365;-65
2023/12/06 10:19:19;;;;;;;32.20;18.80;;;3.50;99.90;;;;;;5020368;28;20037;-63
2023/12/06 10:21:49;;;;;;;27.35;18.13;;;3.60;99.90;;;;;;5035543;28;20052;-64
2023/12/06 10:24:15;;;;;;;32.58;17.60;;;3.60;99.90;;;;;;5027278;28;20527;-61
2023/12/06 10:26:40;;;;;;;27.48;17.60;;;3.60;99.90;;;;;;5021752;28;20126;-61
2023/12/06 10:29:06;;;;;;;28.60;17.40;;;3.60;99.90;;;;;;5020218;28;20517;-64
2023/12/06 10:31:42;;;;;;;33.88;19.08;;;4.50;99.90;;;;;;5032566;28;20115;-62
2023/12/06 10:34:08;;;;;;;28.75;16.83;;;3.60;99.90;;;;;;5029096;28;20246;-63
2023/12/06 10:36:35;;;;;;;28.17;17.17;;;3.60;99.90;;;;;;5027203;28;20056;-62
2023/12/06 10:39:03;;;;;;;34.28;17.70;;;3.60;99.90;;;;;;5029460;28;20037;-61
2023/12/06 10:41:32;;;;;;;29.60;17.58;;;3.60;99.90;;;;;;5021865;28;20404;-65
2023/12/06 10:43:59;;;;;;;29.58;17.77;;;3.70;99.90;;;;;;5025500;28;20126;-62
2023/12/06 10:46:26;;;;;;;25.65;16.90;;;3.70;99.90;;;;;;5022104;28;20037;-62
2023/12/06 10:48:56;;;;;;;26.00;17.42;;;3.70;99.90;;;;;;5024529;28;20078;-64
2023/12/06 10:51:24;;;;;;;31.42;18.23;;;3.70;99.90;;;;;;5023111;28;20477;-65
2023/12/06 10:53:53;;;;;;;28.23;17.95;;;3.70;99.90;;;;;;5018923;28;20072;-63
2023/12/06 10:56:20;;;;;;;30.05;21.02;;;3.70;99.90;;;;;;5028278;28;20041;-62
2023/12/06 10:58:47;;;;;;;33.90;20.40;;;3.70;99.90;;;;;;5037964;28;20038;-64
2023/12/06 11:01:13;;;;;;;31.83;19.45;;;3.70;99.90;;;;;;5026840;28;20048;-63
2023/12/06 11:03:39;;;;;;;31.50;18.65;;;3.80;99.90;;;;;;5032193;28;20033;-62
2023/12/06 11:06:19;;;;;;;28.45;18.52;;;3.80;99.90;;;;;;5032738;28;20041;-62
2023/12/06 11:08:50;;;;;;;28.60;18.08;;;3.80;99.90;;;;;;5037181;28;20069;-63
2023/12/06 11:11:49;;;;;;;27.80;17.05;;;3.80;99.90;;;;;;5028610;28;20050;-61
2023/12/06 11:14:52;;;;;;;35.20;20.73;;;3.90;99.90;;;;;;5033492;28;20044;-62
2023/12/06 11:17:51;;;;;;;32.65;19.80;;;3.90;99.90;;;;;;4996294;28;20052;-62
2023/12/06 11:20:16;;;;;;;32.58;21.88;;;3.90;99.90;;;;;;5015135;28;20045;-65
2023/12/06 11:22:42;;;;;;;31.95;23.67;;;3.90;99.90;;;;;;5025903;28;20044;-63
2023/12/06 11:25:09;;;;;;;47.83;34.97;;;3.90;99.90;;;;;;5035552;28;20064;-62
2023/12/06 11:27:40;;;;;;;42.60;25.67;;;3.90;99.90;;;;;;5035982;28;20040;-61
2023/12/06 11:30:16;;;;;;;31.55;19.63;;;4.00;99.90;;;;;;5036439;28;20123;-64
2023/12/06 11:32:43;;;;;;;32.45;21.17;;;4.00;99.90;;;;;;5033197;28;20040;-64
2023/12/06 11:35:09;;;;;;;31.38;20.35;;;4.00;99.90;;;;;;5032280;28;20036;-62
2023/12/06 11:37:35;;;;;;;36.75;22.90;;;4.00;99.90;;;;;;5036728;28;20332;-62
2023/12/06 11:40:18;;;;;;;32.90;20.27;;;4.00;99.90;;;;;;5042425;28;20037;-62
2023/12/06 11:42:53;;;;;;;34.20;19.25;;;4.00;99.90;;;;;;5021264;28;20045;-63
2023/12/06 11:45:25;;;;;;;32.60;20.17;;;4.00;99.90;;;;;;5034932;28;20047;-62
2023/12/06 11:47:52;;;;;;;;;;;4.00;99.90;;;;;;5032456;28;20052;-62
2023/12/06 11:50:18;;;;;;;27.65;17.55;;;4.10;99.90;;;;;;5027132;28;19921;-63
2023/12/06 11:52:49;;;;;;;29.27;17.95;;;4.10;99.90;;;;;;5036509;28;20045;-63
2023/12/06 11:55:16;;;;;;;29.52;20.27;;;4.10;99.90;;;;;;5033689;28;20496;-61
2023/12/06 11:58:02;;;;;;;30.48;18.75;;;4.10;99.90;;;;;;5037139;28;20540;-61
2023/12/06 12:00:31;;;;;;;30.98;21.25;;;4.10;99.90;;;;;;5036292;28;20083;-61
2023/12/06 12:02:59;;;;;;;35.70;22.58;;;4.10;99.90;;;;;;5042708;28;20496;-61
2023/12/06 12:05:25;;;;;;;32.90;22.90;;;4.10;99.90;;;;;;5035948;28;20068;-61
2023/12/06 12:07:52;;;;;;;33.75;22.65;;;4.10;99.90;;;;;;5029527;28;20038;-65
2023/12/06 12:10:19;;;;;;;28.80;17.63;;;4.10;99.90;;;;;;5033773;28;20052;-62
2023/12/06 12:12:46;;;;;;;29.42;19.65;;;4.10;99.90;;;;;;5036760;28;20048;-62
2023/12/06 12:15:11;;;;;;;39.58;27.50;;;4.10;99.90;;;;;;5020228;28;20060;-61
2023/12/06 12:17:37;;;;;;;26.70;19.00;;;4.10;99.90;;;;;;5036081;28;20037;-65
2023/12/06 12:20:06;;;;;;;22.55;15.75;;;4.10;99.90;;;;;;5036132;28;20515;-64
2023/12/06 12:22:41;;;;;;;22.75;16.02;;;4.10;99.90;;;;;;5032424;28;20034;-61
2023/12/06 12:25:07;;;;;;;26.48;17.70;;;4.10;99.90;;;;;;5032748;28;20664;-62
2023/12/06 12:27:33;;;;;;;25.55;16.55;;;4.10;99.90;;;;;;5038470;28;20115;-63
2023/12/06 12:29:58;;;;;;;28.90;17.10;;;4.10;99.90;;;;;;5035873;28;20044;-63
2023/12/06 12:32:26;;;;;;;21.85;14.25;;;4.10;99.90;;;;;;5040161;28;20399;-61
2023/12/06 12:34:52;;;;;;;20.05;13.30;;;4.10;99.90;;;;;;5032965;28;20069;-61